Nieuwpoort, Belgium
Current Conditions -  °F | °C
As of 4:55 AM on Saturday 20 Dec 2014 (Local Time) from EBFN Reporting Station
Few Clouds Few Clouds  
Wind Chill: 39°   Ceiling: Unl
Heat Index: 46°   Visibility: 6mi
Dew Point: 39°   Wind: 21mph
Humidity: 76%   Direction: 270°W
Pressure: 30.21"   Gusts: NA
Location:  51.13°N, 2.75°E
Report Text: EBFN 200355Z 27018KT 9999 FEW200 08/04 Q1023 BLU
Loading
Personal Weather Stations






























Interactive Weather Map New forecast layout! Learn more

10-Day Weather Forecast

Advertisements
Track Severe Weather on mobile